sensor_id;sensor_type;location;lat;lon;timestamp;pressure;altitude;pressure_sealevel;temperature;humidity
32873;BME280;19224;52.462;16.898;2023-05-20T00:01:32;101432.39;;;12.70;100.00
32873;BME280;19224;52.462;16.898;2023-05-20T00:04:03;101430.78;;;12.64;100.00
32873;BME280;19224;52.462;16.898;2023-05-20T00:06:33;101430.91;;;12.61;100.00
32873;BME280;19224;52.462;16.898;2023-05-20T00:09:04;101432.25;;;12.61;100.00
32873;BME280;19224;52.462;16.898;2023-05-20T00:11:34;101429.59;;;12.60;100.00
32873;BME280;19224;52.462;16.898;2023-05-20T00:14:04;101428.57;;;12.64;100.00
32873;BME280;19224;52.462;16.898;2023-05-20T00:16:34;101419.89;;;12.67;100.00
32873;BME280;19224;52.462;16.898;2023-05-20T00:19:05;101421.98;;;12.71;100.00
32873;BME280;19224;52.462;16.898;2023-05-20T00:21:35;101420.55;;;12.74;100.00
32873;BME280;19224;52.462;16.898;2023-05-20T00:24:06;101418.30;;;12.73;100.00
32873;BME280;19224;52.462;16.898;2023-05-20T00:26:36;101419.25;;;12.72;100.00
32873;BME280;19224;52.462;16.898;2023-05-20T00:29:06;101417.07;;;12.70;100.00
32873;BME280;19224;52.462;16.898;2023-05-20T00:31:36;101416.66;;;12.69;100.00
32873;BME280;19224;52.462;16.898;2023-05-20T00:34:07;101412.77;;;12.65;100.00
32873;BME280;19224;52.462;16.898;2023-05-20T00:36:38;101409.58;;;12.65;100.00
32873;BME280;19224;52.462;16.898;2023-05-20T00:39:08;101407.81;;;12.64;100.00
32873;BME280;19224;52.462;16.898;2023-05-20T00:41:38;101410.02;;;12.66;100.00
32873;BME280;19224;52.462;16.898;2023-05-20T00:44:09;101401.21;;;12.60;100.00
32873;BME280;19224;52.462;16.898;2023-05-20T00:46:39;101411.16;;;12.59;100.00
32873;BME280;19224;52.462;16.898;2023-05-20T00:49:09;101403.02;;;12.61;100.00
32873;BME280;19224;52.462;16.898;2023-05-20T00:51:40;101403.88;;;12.61;100.00
32873;BME280;19224;52.462;16.898;2023-05-20T00:54:11;101402.64;;;12.58;100.00
32873;BME280;19224;52.462;16.898;2023-05-20T00:56:43;101400.39;;;12.58;100.00
32873;BME280;19224;52.462;16.898;2023-05-20T00:59:14;101404.97;;;12.56;100.00
32873;BME280;19224;52.462;16.898;2023-05-20T01:01:45;101403.92;;;12.60;100.00
32873;BME280;19224;52.462;16.898;2023-05-20T01:04:16;101400.47;;;12.56;100.00
32873;BME280;19224;52.462;16.898;2023-05-20T01:06:47;101403.99;;;12.58;100.00
32873;BME280;19224;52.462;16.898;2023-05-20T01:09:18;101397.80;;;12.55;100.00
32873;BME280;19224;52.462;16.898;2023-05-20T01:11:55;101398.26;;;12.54;100.00
32873;BME280;19224;52.462;16.898;2023-05-20T01:14:28;101396.73;;;12.47;100.00
32873;BME280;19224;52.462;16.898;2023-05-20T01:17:02;101395.79;;;12.48;100.00
32873;BME280;19224;52.462;16.898;2023-05-20T01:19:44;101395.79;;;12.48;100.00
32873;BME280;19224;52.462;16.898;2023-05-20T01:22:15;101398.70;;;12.55;100.00
32873;BME280;19224;52.462;16.898;2023-05-20T01:24:46;101392.81;;;12.56;100.00
32873;BME280;19224;52.462;16.898;2023-05-20T01:27:17;101391.88;;;12.57;100.00
32873;BME280;19224;52.462;16.898;2023-05-20T01:29:51;101396.09;;;12.52;100.00
32873;BME280;19224;52.462;16.898;2023-05-20T01:32:36;101392.45;;;12.53;100.00
32873;BME280;19224;52.462;16.898;2023-05-20T01:35:07;101395.38;;;12.47;100.00
32873;BME280;19224;52.462;16.898;2023-05-20T01:37:40;101398.91;;;12.49;100.00
32873;BME280;19224;52.462;16.898;2023-05-20T01:40:15;101398.08;;;12.47;100.00
32873;BME280;19224;52.462;16.898;2023-05-20T01:42:47;101394.33;;;12.51;100.00
32873;BME280;19224;52.462;16.898;2023-05-20T01:45:22;101392.86;;;12.54;100.00
32873;BME280;19224;52.462;16.898;2023-05-20T01:47:52;101389.03;;;12.48;100.00
32873;BME280;19224;52.462;16.898;2023-05-20T01:50:23;101391.25;;;12.49;100.00
32873;BME280;19224;52.462;16.898;2023-05-20T01:52:54;101384.94;;;12.50;100.00
32873;BME280;19224;52.462;16.898;2023-05-20T01:55:24;101391.46;;;12.56;100.00
32873;BME280;19224;52.462;16.898;2023-05-20T01:57:55;101382.00;;;12.56;100.00
32873;BME280;19224;52.462;16.898;2023-05-20T02:00:25;101380.28;;;12.53;100.00
32873;BME280;19224;52.462;16.898;2023-05-20T02:02:55;101375.81;;;12.52;100.00
32873;BME280;19224;52.462;16.898;2023-05-20T02:05:26;101380.92;;;12.48;100.00
32873;BME280;19224;52.462;16.898;2023-05-20T02:07:56;101380.89;;;12.50;100.00
32873;BME280;19224;52.462;16.898;2023-05-20T02:10:27;101369.80;;;12.57;100.00
32873;BME280;19224;52.462;16.898;2023-05-20T02:12:57;101382.49;;;12.55;100.00
32873;BME280;19224;52.462;16.898;2023-05-20T02:15:27;101382.57;;;12.52;100.00
32873;BME280;19224;52.462;16.898;2023-05-20T02:17:58;101372.70;;;12.51;100.00
32873;BME280;19224;52.462;16.898;2023-05-20T02:20:28;101371.88;;;12.49;100.00
32873;BME280;19224;52.462;16.898;2023-05-20T02:22:58;101378.23;;;12.48;100.00
32873;BME280;19224;52.462;16.898;2023-05-20T02:25:29;101374.62;;;12.48;100.00
32873;BME280;19224;52.462;16.898;2023-05-20T02:27:59;101373.64;;;12.50;100.00
32873;BME280;19224;52.462;16.898;2023-05-20T02:30:29;101380.69;;;12.54;100.00
32873;BME280;19224;52.462;16.898;2023-05-20T02:32:59;101374.79;;;12.56;100.00
32873;BME280;19224;52.462;16.898;2023-05-20T02:35:30;101368.03;;;12.56;100.00
32873;BME280;19224;52.462;16.898;2023-05-20T02:38:00;101371.19;;;12.56;100.00
32873;BME280;19224;52.462;16.898;2023-05-20T02:40:31;101372.59;;;12.54;100.00
32873;BME280;19224;52.462;16.898;2023-05-20T02:43:01;101376.76;;;12.51;100.00
32873;BME280;19224;52.462;16.898;2023-05-20T02:45:32;101385.80;;;12.50;100.00
32873;BME280;19224;52.462;16.898;2023-05-20T02:48:02;101376.91;;;12.47;100.00
32873;BME280;19224;52.462;16.898;2023-05-20T02:50:33;101377.41;;;12.46;100.00
32873;BME280;19224;52.462;16.898;2023-05-20T02:53:05;101376.88;;;12.48;100.00
32873;BME280;19224;52.462;16.898;2023-05-20T02:55:37;101380.14;;;12.45;100.00
32873;BME280;19224;52.462;16.898;2023-05-20T02:58:07;101379.53;;;12.50;100.00
32873;BME280;19224;52.462;16.898;2023-05-20T03:00:38;101380.81;;;12.51;100.00
32873;BME280;19224;52.462;16.898;2023-05-20T03:03:09;101391.58;;;12.53;100.00
32873;BME280;19224;52.462;16.898;2023-05-20T03:05:41;101385.59;;;12.43;100.00
32873;BME280;19224;52.462;16.898;2023-05-20T03:08:13;101383.42;;;12.41;100.00
32873;BME280;19224;52.462;16.898;2023-05-20T03:10:43;101384.69;;;12.44;100.00
32873;BME280;19224;52.462;16.898;2023-05-20T03:13:14;101391.85;;;12.45;100.00
32873;BME280;19224;52.462;16.898;2023-05-20T03:15:44;101395.27;;;12.50;100.00
32873;BME280;19224;52.462;16.898;2023-05-20T03:18:15;101395.27;;;12.50;100.00
32873;BME280;19224;52.462;16.898;2023-05-20T03:20:46;101391.62;;;12.51;100.00
32873;BME280;19224;52.462;16.898;2023-05-20T03:23:16;101391.70;;;12.50;100.00
32873;BME280;19224;52.462;16.898;2023-05-20T03:25:47;101394.65;;;12.55;100.00
32873;BME280;19224;52.462;16.898;2023-05-20T03:28:18;101398.70;;;12.55;100.00
32873;BME280;19224;52.462;16.898;2023-05-20T03:30:48;101395.06;;;12.56;100.00
32873;BME280;19224;52.462;16.898;2023-05-20T03:33:19;101397.80;;;12.55;100.00
32873;BME280;19224;52.462;16.898;2023-05-20T03:35:50;101402.80;;;12.54;100.00
32873;BME280;19224;52.462;16.898;2023-05-20T03:38:21;101408.16;;;12.55;100.00
32873;BME280;19224;52.462;16.898;2023-05-20T03:40:51;101403.05;;;12.59;100.00
32873;BME280;19224;52.462;16.898;2023-05-20T03:43:21;101403.34;;;12.63;100.00
32873;BME280;19224;52.462;16.898;2023-05-20T03:45:53;101402.52;;;12.61;100.00
32873;BME280;19224;52.462;16.898;2023-05-20T03:48:23;101397.53;;;12.62;100.00
32873;BME280;19224;52.462;16.898;2023-05-20T03:50:53;101408.83;;;12.62;100.00
32873;BME280;19224;52.462;16.898;2023-05-20T03:53:24;101414.78;;;12.71;100.00
32873;BME280;19224;52.462;16.898;2023-05-20T03:55:54;101415.80;;;12.80;100.00
32873;BME280;19224;52.462;16.898;2023-05-20T03:58:26;101422.45;;;12.83;100.00
32873;BME280;19224;52.462;16.898;2023-05-20T04:00:59;101418.39;;;12.83;100.00
32873;BME280;19224;52.462;16.898;2023-05-20T04:03:29;101427.03;;;12.81;100.00
32873;BME280;19224;52.462;16.898;2023-05-20T04:05:59;101420.27;;;12.81;100.00
32873;BME280;19224;52.462;16.898;2023-05-20T04:08:30;101424.53;;;12.75;100.00
32873;BME280;19224;52.462;16.898;2023-05-20T04:11:01;101428.95;;;12.78;100.00
32873;BME280;19224;52.462;16.898;2023-05-20T04:13:31;101429.33;;;12.80;100.00
32873;BME280;19224;52.462;16.898;2023-05-20T04:16:02;101430.97;;;12.84;100.00
32873;BME280;19224;52.462;16.898;2023-05-20T04:18:33;101422.03;;;12.82;100.00
32873;BME280;19224;52.462;16.898;2023-05-20T04:21:05;101424.73;;;12.82;100.00
32873;BME280;19224;52.462;16.898;2023-05-20T04:23:36;101427.15;;;12.78;100.00
32873;BME280;19224;52.462;16.898;2023-05-20T04:26:06;101425.47;;;12.74;100.00
32873;BME280;19224;52.462;16.898;2023-05-20T04:28:37;101427.56;;;12.79;100.00
32873;BME280;19224;52.462;16.898;2023-05-20T04:31:11;101422.98;;;12.81;100.00
32873;BME280;19224;52.462;16.898;2023-05-20T04:33:42;101429.62;;;12.84;100.00
32873;BME280;19224;52.462;16.898;2023-05-20T04:36:14;101427.33;;;12.85;100.00
32873;BME280;19224;52.462;16.898;2023-05-20T04:38:45;101423.68;;;12.86;100.00
32873;BME280;19224;52.462;16.898;2023-05-20T04:41:16;101429.41;;;12.90;100.00
32873;BME280;19224;52.462;16.898;2023-05-20T04:43:46;101421.80;;;12.88;100.00
32873;BME280;19224;52.462;16.898;2023-05-20T04:46:18;101420.16;;;12.84;100.00
32873;BME280;19224;52.462;16.898;2023-05-20T04:48:48;101422.66;;;12.90;100.00
32873;BME280;19224;52.462;16.898;2023-05-20T04:51:19;101421.58;;;12.96;100.00
32873;BME280;19224;52.462;16.898;2023-05-20T04:53:49;101422.33;;;12.99;100.00
32873;BME280;19224;52.462;16.898;2023-05-20T04:56:20;101420.23;;;13.07;100.00
32873;BME280;19224;52.462;16.898;2023-05-20T04:58:50;101417.31;;;13.13;100.00
32873;BME280;19224;52.462;16.898;2023-05-20T05:01:20;101421.78;;;13.14;100.00
32873;BME280;19224;52.462;16.898;2023-05-20T05:03:51;101418.34;;;13.09;100.00
32873;BME280;19224;52.462;16.898;2023-05-20T05:06:21;101423.75;;;13.09;100.00
32873;BME280;19224;52.462;16.898;2023-05-20T05:08:56;101415.88;;;13.03;100.00
32873;BME280;19224;52.462;16.898;2023-05-20T05:11:28;101416.13;;;13.09;100.00
32873;BME280;19224;52.462;16.898;2023-05-20T05:13:59;101413.78;;;13.11;100.00
32873;BME280;19224;52.462;16.898;2023-05-20T05:16:29;101415.26;;;13.20;100.00
32873;BME280;19224;52.462;16.898;2023-05-20T05:18:59;101422.72;;;13.13;100.00
32873;BME280;19224;52.462;16.898;2023-05-20T05:21:30;101417.72;;;13.14;100.00
32873;BME280;19224;52.462;16.898;2023-05-20T05:24:00;101423.25;;;13.23;100.00
32873;BME280;19224;52.462;16.898;2023-05-20T05:26:30;101426.77;;;13.25;100.00
32873;BME280;19224;52.462;16.898;2023-05-20T05:29:00;101422.02;;;13.31;100.00
32873;BME280;19224;52.462;16.898;2023-05-20T05:31:30;101430.13;;;13.31;100.00
32873;BME280;19224;52.462;16.898;2023-05-20T05:34:01;101425.12;;;13.32;100.00
32873;BME280;19224;52.462;16.898;2023-05-20T05:36:33;101427.33;;;13.34;100.00
32873;BME280;19224;52.462;16.898;2023-05-20T05:39:03;101435.07;;;13.43;100.00
32873;BME280;19224;52.462;16.898;2023-05-20T05:41:34;101433.09;;;13.48;100.00
32873;BME280;19224;52.462;16.898;2023-05-20T05:44:05;101430.60;;;13.42;100.00
32873;BME280;19224;52.462;16.898;2023-05-20T05:46:35;101425.36;;;13.38;100.00
32873;BME280;19224;52.462;16.898;2023-05-20T05:49:05;101429.02;;;13.37;100.00
32873;BME280;19224;52.462;16.898;2023-05-20T05:51:35;101423.68;;;13.35;100.00
32873;BME280;19224;52.462;16.898;2023-05-20T05:54:06;101429.78;;;13.40;100.00
32873;BME280;19224;52.462;16.898;2023-05-20T05:56:36;101428.67;;;13.46;100.00
32873;BME280;19224;52.462;16.898;2023-05-20T05:59:07;101424.69;;;13.44;100.00
32873;BME280;19224;52.462;16.898;2023-05-20T06:01:37;101424.56;;;13.47;100.00
32873;BME280;19224;52.462;16.898;2023-05-20T06:04:07;101419.38;;;13.41;100.00
32873;BME280;19224;52.462;16.898;2023-05-20T06:06:37;101422.89;;;13.43;100.00
32873;BME280;19224;52.462;16.898;2023-05-20T06:09:08;101427.63;;;13.50;100.00
32873;BME280;19224;52.462;16.898;2023-05-20T06:11:38;101432.33;;;13.56;100.00
32873;BME280;19224;52.462;16.898;2023-05-20T06:14:10;101432.33;;;13.56;100.00
32873;BME280;19224;52.462;16.898;2023-05-20T06:16:40;101434.63;;;13.55;100.00
32873;BME280;19224;52.462;16.898;2023-05-20T06:19:10;101431.84;;;13.57;100.00
32873;BME280;19224;52.462;16.898;2023-05-20T06:21:40;101435.62;;;13.53;100.00
32873;BME280;19224;52.462;16.898;2023-05-20T06:24:11;101431.84;;;13.57;100.00
32873;BME280;19224;52.462;16.898;2023-05-20T06:26:42;101431.53;;;13.64;100.00
32873;BME280;19224;52.462;16.898;2023-05-20T06:29:13;101429.42;;;13.72;100.00
32873;BME280;19224;52.462;16.898;2023-05-20T06:31:44;101434.17;;;13.77;100.00
32873;BME280;19224;52.462;16.898;2023-05-20T06:34:14;101431.00;;;13.78;100.00
32873;BME280;19224;52.462;16.898;2023-05-20T06:36:44;101433.04;;;13.83;100.00
32873;BME280;19224;52.462;16.898;2023-05-20T06:39:15;101434.52;;;13.91;100.00
32873;BME280;19224;52.462;16.898;2023-05-20T06:41:45;101436.33;;;14.02;100.00
32873;BME280;19224;52.462;16.898;2023-05-20T06:44:15;101435.95;;;14.11;100.00
32873;BME280;19224;52.462;16.898;2023-05-20T06:46:46;101439.53;;;14.12;100.00
32873;BME280;19224;52.462;16.898;2023-05-20T06:49:16;101436.94;;;14.20;100.00
32873;BME280;19224;52.462;16.898;2023-05-20T06:51:47;101440.94;;;14.33;100.00
32873;BME280;19224;52.462;16.898;2023-05-20T06:54:18;101431.52;;;14.42;100.00
32873;BME280;19224;52.462;16.898;2023-05-20T06:56:49;101433.53;;;14.37;100.00
32873;BME280;19224;52.462;16.898;2023-05-20T06:59:20;101433.42;;;14.40;100.00
32873;BME280;19224;52.462;16.898;2023-05-20T07:01:50;101429.17;;;14.44;100.00
32873;BME280;19224;52.462;16.898;2023-05-20T07:04:20;101428.89;;;14.50;100.00
32873;BME280;19224;52.462;16.898;2023-05-20T07:06:51;101421.03;;;14.64;100.00
32873;BME280;19224;52.462;16.898;2023-05-20T07:09:21;101413.72;;;14.76;100.00
32873;BME280;19224;52.462;16.898;2023-05-20T07:11:51;101408.03;;;14.72;100.00
32873;BME280;19224;52.462;16.898;2023-05-20T07:14:21;101398.80;;;14.76;100.00
32873;BME280;19224;52.462;16.898;2023-05-20T07:16:52;101398.69;;;14.79;100.00
32873;BME280;19224;52.462;16.898;2023-05-20T07:19:22;101397.43;;;15.06;100.00
32873;BME280;19224;52.462;16.898;2023-05-20T07:21:53;101396.20;;;15.23;100.00
32873;BME280;19224;52.462;16.898;2023-05-20T07:24:23;101393.19;;;15.29;100.00
32873;BME280;19224;52.462;16.898;2023-05-20T07:26:53;101393.48;;;15.23;100.00
32873;BME280;19224;52.462;16.898;2023-05-20T07:29:24;101395.87;;;15.30;100.00
32873;BME280;19224;52.462;16.898;2023-05-20T07:31:55;101393.56;;;15.31;100.00
32873;BME280;19224;52.462;16.898;2023-05-20T07:34:25;101390.44;;;15.30;100.00
32873;BME280;19224;52.462;16.898;2023-05-20T07:36:56;101382.09;;;15.35;100.00
32873;BME280;19224;52.462;16.898;2023-05-20T07:39:27;101386.75;;;15.41;100.00
32873;BME280;19224;52.462;16.898;2023-05-20T07:41:57;101388.88;;;15.53;100.00
32873;BME280;19224;52.462;16.898;2023-05-20T07:44:27;101390.67;;;15.63;100.00
32873;BME280;19224;52.462;16.898;2023-05-20T07:46:57;101384.76;;;15.82;100.00
32873;BME280;19224;52.462;16.898;2023-05-20T07:49:28;101379.63;;;16.03;100.00
32873;BME280;19224;52.462;16.898;2023-05-20T07:51:59;101379.70;;;16.10;100.00
32873;BME280;19224;52.462;16.898;2023-05-20T07:54:29;101382.30;;;16.30;100.00
32873;BME280;19224;52.462;16.898;2023-05-20T07:57:00;101381.70;;;16.42;100.00
32873;BME280;19224;52.462;16.898;2023-05-20T07:59:30;101386.52;;;16.54;100.00
32873;BME280;19224;52.462;16.898;2023-05-20T08:02:01;101374.03;;;16.58;100.00
32873;BME280;19224;52.462;16.898;2023-05-20T08:04:31;101368.99;;;16.59;100.00
32873;BME280;19224;52.462;16.898;2023-05-20T08:07:03;101374.77;;;16.62;100.00
32873;BME280;19224;52.462;16.898;2023-05-20T08:09:34;101368.94;;;16.78;100.00
32873;BME280;19224;52.462;16.898;2023-05-20T08:12:05;101371.70;;;16.85;100.00
32873;BME280;19224;52.462;16.898;2023-05-20T08:14:35;101363.92;;;17.02;100.00
32873;BME280;19224;52.462;16.898;2023-05-20T08:17:06;101357.16;;;17.09;100.00
32873;BME280;19224;52.462;16.898;2023-05-20T08:19:36;101367.38;;;17.21;100.00
32873;BME280;19224;52.462;16.898;2023-05-20T08:22:13;101356.74;;;17.25;100.00
32873;BME280;19224;52.462;16.898;2023-05-20T08:24:39;101351.63;;;17.52;100.00
32873;BME280;19224;52.462;16.898;2023-05-20T08:27:10;101347.71;;;17.64;98.53
32873;BME280;19224;52.462;16.898;2023-05-20T08:29:40;101346.58;;;17.53;97.30
32873;BME280;19224;52.462;16.898;2023-05-20T08:32:10;101352.74;;;17.56;98.07
32873;BME280;19224;52.462;16.898;2023-05-20T08:34:42;101353.48;;;17.67;98.30
32873;BME280;19224;52.462;16.898;2023-05-20T08:37:13;101351.80;;;17.95;97.79
32873;BME280;19224;52.462;16.898;2023-05-20T08:39:44;101347.24;;;18.34;96.88
32873;BME280;19224;52.462;16.898;2023-05-20T08:42:20;101354.45;;;18.64;95.39
32873;BME280;19224;52.462;16.898;2023-05-20T08:44:52;101352.43;;;18.38;93.75
32873;BME280;19224;52.462;16.898;2023-05-20T08:47:23;101353.63;;;18.48;94.68
32873;BME280;19224;52.462;16.898;2023-05-20T08:49:55;101360.91;;;18.70;93.95
32873;BME280;19224;52.462;16.898;2023-05-20T08:52:25;101357.23;;;18.85;93.23
32873;BME280;19224;52.462;16.898;2023-05-20T08:54:56;101355.02;;;18.99;92.90
32873;BME280;19224;52.462;16.898;2023-05-20T08:57:28;101353.94;;;19.08;92.60
32873;BME280;19224;52.462;16.898;2023-05-20T08:59:59;101347.89;;;18.96;91.37
32873;BME280;19224;52.462;16.898;2023-05-20T09:02:32;101348.02;;;18.58;92.11
32873;BME280;19224;52.462;16.898;2023-05-20T09:05:02;101345.41;;;18.64;92.97
32873;BME280;19224;52.462;16.898;2023-05-20T09:07:33;101338.81;;;18.89;92.77
32873;BME280;19224;52.462;16.898;2023-05-20T09:10:04;101346.54;;;19.03;91.95
32873;BME280;19224;52.462;16.898;2023-05-20T09:12:37;101342.37;;;19.26;91.43
32873;BME280;19224;52.462;16.898;2023-05-20T09:15:10;101342.88;;;19.46;90.16
32873;BME280;19224;52.462;16.898;2023-05-20T09:17:41;101341.69;;;19.57;89.67
32873;BME280;19224;52.462;16.898;2023-05-20T09:20:13;101336.53;;;19.32;89.10
32873;BME280;19224;52.462;16.898;2023-05-20T09:22:43;101347.18;;;19.22;89.46
32873;BME280;19224;52.462;16.898;2023-05-20T09:25:17;101341.22;;;19.30;90.15
32873;BME280;19224;52.462;16.898;2023-05-20T09:27:46;101346.38;;;19.48;89.42
32873;BME280;19224;52.462;16.898;2023-05-20T09:30:21;101346.27;;;19.63;88.87
32873;BME280;19224;52.462;16.898;2023-05-20T09:32:56;101347.21;;;19.69;88.37
32873;BME280;19224;52.462;16.898;2023-05-20T09:35:28;101347.59;;;19.84;87.94
32873;BME280;19224;52.462;16.898;2023-05-20T09:37:59;101341.23;;;19.84;88.44
32873;BME280;19224;52.462;16.898;2023-05-20T09:40:30;101340.02;;;19.61;88.06
32873;BME280;19224;52.462;16.898;2023-05-20T09:43:06;101342.09;;;19.44;88.28
32873;BME280;19224;52.462;16.898;2023-05-20T09:45:38;101348.05;;;19.51;88.88
32873;BME280;19224;52.462;16.898;2023-05-20T09:48:11;101345.37;;;19.70;88.32
32873;BME280;19224;52.462;16.898;2023-05-20T09:50:42;101343.49;;;19.84;87.94
32873;BME280;19224;52.462;16.898;2023-05-20T09:53:14;101347.55;;;19.98;87.05
32873;BME280;19224;52.462;16.898;2023-05-20T09:55:46;101347.93;;;19.99;87.03
32873;BME280;19224;52.462;16.898;2023-05-20T09:58:19;101342.57;;;20.05;86.84
32873;BME280;19224;52.462;16.898;2023-05-20T10:00:52;101344.23;;;20.07;87.29
32873;BME280;19224;52.462;16.898;2023-05-20T10:03:23;101339.23;;;20.07;87.19
32873;BME280;19224;52.462;16.898;2023-05-20T10:12:20;101338.66;;;19.95;87.56
32873;BME280;19224;52.462;16.898;2023-05-20T10:20:49;101335.37;;;19.76;88.09
32873;BME280;19224;52.462;16.898;2023-05-20T10:23:30;101329.05;;;19.75;88.02
32873;BME280;19224;52.462;16.898;2023-05-20T10:26:05;101326.57;;;19.85;88.48
32873;BME280;19224;52.462;16.898;2023-05-20T10:28:39;101324.21;;;19.93;88.50
32873;BME280;19224;52.462;16.898;2023-05-20T10:31:23;101319.69;;;20.13;87.78
32873;BME280;19224;52.462;16.898;2023-05-20T10:33:52;101326.53;;;20.13;87.49
32873;BME280;19224;52.462;16.898;2023-05-20T10:36:28;101319.69;;;20.13;87.25
32873;BME280;19224;52.462;16.898;2023-05-20T10:39:01;101313.84;;;20.12;87.11
32873;BME280;19224;52.462;16.898;2023-05-20T10:41:34;101310.98;;;19.80;87.38
32873;BME280;19224;52.462;16.898;2023-05-20T10:44:08;101300.48;;;19.60;88.50
32873;BME280;19224;52.462;16.898;2023-05-20T10:46:38;101302.70;;;19.60;89.53
32873;BME280;19224;52.462;16.898;2023-05-20T10:49:21;101294.02;;;19.68;89.31
32873;BME280;19224;52.462;16.898;2023-05-20T10:51:51;101292.16;;;19.95;88.32
32873;BME280;19224;52.462;16.898;2023-05-20T10:54:24;101298.78;;;19.98;88.01
32873;BME280;19224;52.462;16.898;2023-05-20T10:56:57;101310.08;;;19.79;88.39
32873;BME280;19224;52.462;16.898;2023-05-20T10:59:27;101296.84;;;19.66;88.37
32873;BME280;19224;52.462;16.898;2023-05-20T11:02:00;101298.34;;;19.51;88.79
32873;BME280;19224;52.462;16.898;2023-05-20T11:04:31;101303.20;;;19.53;89.73
32873;BME280;19224;52.462;16.898;2023-05-20T11:07:02;101296.54;;;19.71;89.48
32873;BME280;19224;52.462;16.898;2023-05-20T11:09:32;101295.17;;;19.78;87.82
32873;BME280;19224;52.462;16.898;2023-05-20T11:12:03;101293.81;;;19.71;87.91
32873;BME280;19224;52.462;16.898;2023-05-20T11:14:35;101298.06;;;19.89;87.76
32873;BME280;19224;52.462;16.898;2023-05-20T11:17:07;101293.63;;;20.27;86.83
32873;BME280;19224;52.462;16.898;2023-05-20T11:19:37;101286.22;;;20.54;85.41
32873;BME280;19224;52.462;16.898;2023-05-20T11:22:08;101290.89;;;20.71;84.87
32873;BME280;19224;52.462;16.898;2023-05-20T11:24:38;101295.39;;;20.92;84.55
32873;BME280;19224;52.462;16.898;2023-05-20T11:27:08;101289.95;;;21.10;83.40
32873;BME280;19224;52.462;16.898;2023-05-20T11:29:40;101285.64;;;20.68;82.15
32873;BME280;19224;52.462;16.898;2023-05-20T11:32:11;101282.91;;;20.56;83.10
32873;BME280;19224;52.462;16.898;2023-05-20T11:34:41;101281.09;;;20.62;83.77
32873;BME280;19224;52.462;16.898;2023-05-20T11:37:11;101271.35;;;20.90;83.36
32873;BME280;19224;52.462;16.898;2023-05-20T11:39:43;101276.94;;;21.01;83.63
32873;BME280;19224;52.462;16.898;2023-05-20T11:42:15;101266.02;;;20.94;81.80
32873;BME280;19224;52.462;16.898;2023-05-20T11:44:45;101264.60;;;20.88;81.85
32873;BME280;19224;52.462;16.898;2023-05-20T11:47:23;101259.05;;;21.08;81.61
32873;BME280;19224;52.462;16.898;2023-05-20T11:49:49;101258.09;;;20.96;81.85
32873;BME280;19224;52.462;16.898;2023-05-20T11:52:20;101252.84;;;21.24;81.09
32873;BME280;19224;52.462;16.898;2023-05-20T11:54:52;101261.10;;;21.47;80.11
32873;BME280;19224;52.462;16.898;2023-05-20T11:57:23;101260.77;;;21.52;80.56
32873;BME280;19224;52.462;16.898;2023-05-20T11:59:53;101260.80;;;21.09;81.16
32873;BME280;19224;52.462;16.898;2023-05-20T12:02:23;101263.89;;;20.92;82.53
32873;BME280;19224;52.462;16.898;2023-05-20T12:04:54;101255.16;;;20.80;82.78
32873;BME280;19224;52.462;16.898;2023-05-20T12:07:26;101262.80;;;20.50;83.18
32873;BME280;19224;52.462;16.898;2023-05-20T12:09:56;101259.83;;;20.21;85.78
32873;BME280;19224;52.462;16.898;2023-05-20T12:12:26;101249.84;;;20.27;86.39
32873;BME280;19224;52.462;16.898;2023-05-20T12:14:57;101241.22;;;20.33;86.54
32873;BME280;19224;52.462;16.898;2023-05-20T12:17:27;101235.04;;;20.17;86.13
32873;BME280;19224;52.462;16.898;2023-05-20T12:19:57;101234.30;;;20.08;87.50
32873;BME280;19224;52.462;16.898;2023-05-20T12:22:27;101237.55;;;20.20;87.68
32873;BME280;19224;52.462;16.898;2023-05-20T12:24:57;101246.20;;;20.26;86.54
32873;BME280;19224;52.462;16.898;2023-05-20T12:27:28;101247.39;;;20.29;86.65
32873;BME280;19224;52.462;16.898;2023-05-20T12:29:59;101247.39;;;20.42;86.45
32873;BME280;19224;52.462;16.898;2023-05-20T12:32:29;101248.76;;;20.42;85.63
32873;BME280;19224;52.462;16.898;2023-05-20T12:34:59;101243.53;;;20.51;85.01
32873;BME280;19224;52.462;16.898;2023-05-20T12:37:30;101238.25;;;20.48;85.48
32873;BME280;19224;52.462;16.898;2023-05-20T12:40:00;101234.13;;;20.68;86.09
32873;BME280;19224;52.462;16.898;2023-05-20T12:42:33;101224.17;;;20.92;86.02
32873;BME280;19224;52.462;16.898;2023-05-20T12:45:05;101225.27;;;21.20;85.05
32873;BME280;19224;52.462;16.898;2023-05-20T12:47:36;101210.00;;;21.46;83.95
32873;BME280;19224;52.462;16.898;2023-05-20T12:50:07;101207.88;;;21.62;83.11
32873;BME280;19224;52.462;16.898;2023-05-20T12:52:38;101209.45;;;21.72;81.94
32873;BME280;19224;52.462;16.898;2023-05-20T12:55:09;101212.63;;;21.84;81.29
32873;BME280;19224;52.462;16.898;2023-05-20T12:57:42;101199.17;;;21.86;81.19
32873;BME280;19224;52.462;16.898;2023-05-20T13:00:14;101195.75;;;22.01;80.90
32873;BME280;19224;52.462;16.898;2023-05-20T13:02:44;101198.36;;;22.02;80.58
32873;BME280;19224;52.462;16.898;2023-05-20T13:05:15;101203.05;;;22.18;80.20